Time;durP1;ratioP1;P1;durP2;ratioP2;P2;SDS_P1;SDS_P2;PMS_P1;PMS_P2;Temp;Humidity;BMP_temperature;BMP_pressure;BME280_temperature;BME280_humidity;BME280_pressure;Samples;Min_cycle;Max_cycle;Signal;HPM_P1;HPM_P2
2022/03/02 00:00:51;;;;;;;0.30;0.30;;;6.20;99.90;;;;;;5096993;28;20380;-76
2022/03/02 00:03:17;;;;;;;0.20;0.20;;;6.20;99.90;;;;;;5097997;28;20040;-77
2022/03/02 00:05:42;;;;;;;0.20;0.20;;;6.20;99.90;;;;;;5097590;28;20510;-75
2022/03/02 00:08:08;;;;;;;0.20;0.20;;;6.20;99.90;;;;;;5097545;28;20048;-78
2022/03/02 00:10:34;;;;;;;0.20;0.20;;;6.20;99.90;;;;;;5097467;28;20044;-75
2022/03/02 00:13:00;;;;;;;0.20;0.20;;;6.20;99.90;;;;;;5097530;28;20048;-74
2022/03/02 00:15:25;;;;;;;0.20;0.20;;;6.10;99.90;;;;;;5097681;28;20052;-74
2022/03/02 00:17:51;;;;;;;0.20;0.20;;;6.10;99.90;;;;;;5097463;28;20177;-74
2022/03/02 00:20:17;;;;;;;0.20;0.20;;;6.10;99.90;;;;;;5097555;28;20476;-74
2022/03/02 00:22:43;;;;;;;0.20;0.20;;;6.10;99.90;;;;;;5097493;28;20040;-73
2022/03/02 00:25:09;;;;;;;0.20;0.20;;;6.10;99.90;;;;;;5097282;28;20503;-75
2022/03/02 00:27:35;;;;;;;0.30;0.30;;;6.10;99.90;;;;;;5097347;28;20052;-74
2022/03/02 00:30:02;;;;;;;0.20;0.20;;;6.10;99.90;;;;;;5097299;28;20047;-74
2022/03/02 00:32:28;;;;;;;0.30;0.30;;;6.20;99.90;;;;;;5097043;28;20507;-75
2022/03/02 00:34:53;;;;;;;0.20;0.20;;;6.10;99.90;;;;;;5096885;28;20048;-73
2022/03/02 00:37:19;;;;;;;0.20;0.20;;;6.10;99.90;;;;;;5097091;28;20040;-74
2022/03/02 00:39:45;;;;;;;0.20;0.20;;;6.10;99.90;;;;;;5096953;28;20051;-74
2022/03/02 00:42:11;;;;;;;0.20;0.20;;;6.00;99.90;;;;;;5096952;28;20055;-74
2022/03/02 00:44:37;;;;;;;0.30;0.30;;;6.00;99.90;;;;;;5096838;28;20066;-76
2022/03/02 00:47:04;;;;;;;0.20;0.20;;;6.00;99.90;;;;;;5096943;28;20476;-76
2022/03/02 00:49:32;;;;;;;0.20;0.20;;;6.00;99.90;;;;;;5096626;28;20044;-76
2022/03/02 00:51:59;;;;;;;0.20;0.20;;;6.00;99.90;;;;;;5096842;28;20473;-73
2022/03/02 00:54:24;;;;;;;;;;;6.00;99.90;;;;;;5097210;28;20059;-75
2022/03/02 00:56:50;;;;;;;0.20;0.20;;;6.00;99.90;;;;;;5096738;28;19920;-75
2022/03/02 00:59:16;;;;;;;0.20;0.20;;;5.90;99.90;;;;;;5096663;28;20140;-75
2022/03/02 01:01:42;;;;;;;0.20;0.20;;;5.90;99.90;;;;;;5097072;28;20047;-75
2022/03/02 01:04:08;;;;;;;0.20;0.20;;;5.90;99.90;;;;;;5096464;28;20044;-75
2022/03/02 01:06:34;;;;;;;0.20;0.20;;;5.90;99.90;;;;;;5096601;28;20040;-75
2022/03/02 01:09:00;;;;;;;0.20;0.20;;;5.90;99.90;;;;;;5096567;28;20048;-76
2022/03/02 01:11:26;;;;;;;0.20;0.20;;;5.90;99.90;;;;;;5095119;28;20044;-75
2022/03/02 01:13:51;;;;;;;0.30;0.30;;;5.90;99.90;;;;;;5096656;28;20404;-75
2022/03/02 01:16:17;;;;;;;0.20;0.20;;;5.90;99.90;;;;;;5096715;28;20105;-75
2022/03/02 01:18:43;;;;;;;0.20;0.20;;;5.80;99.90;;;;;;5096250;28;20488;-75
2022/03/02 01:21:09;;;;;;;0.20;0.20;;;5.80;99.90;;;;;;5096028;28;20084;-75
2022/03/02 01:23:34;;;;;;;0.30;0.30;;;5.80;99.90;;;;;;5096160;28;20040;-73
2022/03/02 01:26:00;;;;;;;0.20;0.20;;;5.80;99.90;;;;;;5095760;28;20399;-73
2022/03/02 01:28:26;;;;;;;0.30;0.30;;;5.80;99.90;;;;;;5095334;28;20048;-74
2022/03/02 01:30:52;;;;;;;0.30;0.30;;;5.80;99.90;;;;;;5096032;28;20424;-74
2022/03/02 01:33:17;;;;;;;0.20;0.20;;;5.70;99.90;;;;;;5096009;28;20487;-73
2022/03/02 01:35:43;;;;;;;0.20;0.20;;;5.60;99.90;;;;;;5095919;28;20492;-74
2022/03/02 01:38:09;;;;;;;0.20;0.20;;;5.70;99.90;;;;;;5096058;28;20399;-74
2022/03/02 01:40:35;;;;;;;0.20;0.20;;;5.60;99.90;;;;;;5095748;28;20044;-75
2022/03/02 01:43:00;;;;;;;0.20;0.20;;;5.60;99.90;;;;;;5095845;28;20121;-74
2022/03/02 01:45:26;;;;;;;0.20;0.20;;;5.60;99.90;;;;;;5095851;28;20485;-74
2022/03/02 01:47:52;;;;;;;0.20;0.20;;;5.60;99.90;;;;;;5095740;28;20052;-76
2022/03/02 01:50:18;;;;;;;0.30;0.30;;;5.60;99.90;;;;;;5095855;28;20044;-74
2022/03/02 01:52:44;;;;;;;0.20;0.20;;;5.50;99.90;;;;;;5095396;28;20474;-74
2022/03/02 01:55:12;;;;;;;0.20;0.20;;;5.60;99.90;;;;;;5095568;28;20282;-75
2022/03/02 01:57:37;;;;;;;0.20;0.20;;;5.50;99.90;;;;;;5096252;28;20044;-75
2022/03/02 02:00:08;;;;;;;0.20;0.20;;;5.50;99.90;;;;;;5095529;28;20044;-73
2022/03/02 02:02:34;;;;;;;0.20;0.20;;;5.50;99.90;;;;;;5095496;28;20408;-74
2022/03/02 02:04:59;;;;;;;0.20;0.20;;;5.50;99.90;;;;;;5095465;28;20039;-75
2022/03/02 02:07:26;;;;;;;0.20;0.20;;;5.50;99.90;;;;;;5095312;28;20476;-77
2022/03/02 02:09:52;;;;;;;;;;;5.60;99.90;;;;;;5095630;28;20446;-76
2022/03/02 02:12:18;;;;;;;0.20;0.20;;;5.50;99.90;;;;;;5095037;28;19923;-76
2022/03/02 02:14:44;;;;;;;0.20;0.20;;;5.50;99.90;;;;;;5095283;28;20389;-75
2022/03/02 02:17:10;;;;;;;0.30;0.30;;;5.40;99.90;;;;;;5095437;28;20043;-74
2022/03/02 02:19:35;;;;;;;0.30;0.30;;;5.50;99.90;;;;;;5095269;28;20169;-74
2022/03/02 02:22:01;;;;;;;0.20;0.20;;;5.40;99.90;;;;;;5094776;28;20039;-76
2022/03/02 02:24:27;;;;;;;0.20;0.20;;;5.40;99.90;;;;;;5095036;28;20047;-75
2022/03/02 02:26:53;;;;;;;0.20;0.20;;;5.40;99.90;;;;;;5095212;28;20132;-75
2022/03/02 02:29:21;;;;;;;0.30;0.30;;;5.40;99.90;;;;;;5095024;28;20480;-76
2022/03/02 02:31:46;;;;;;;0.20;0.20;;;5.40;99.90;;;;;;5094954;28;20176;-75
2022/03/02 02:34:12;;;;;;;0.20;0.20;;;5.40;99.90;;;;;;5094991;28;20057;-77
2022/03/02 02:36:39;;;;;;;0.20;0.20;;;5.30;99.90;;;;;;5094944;28;20043;-74
2022/03/02 02:39:05;;;;;;;0.20;0.20;;;5.30;99.90;;;;;;5094757;28;20044;-75
2022/03/02 02:41:32;;;;;;;0.20;0.20;;;5.30;99.90;;;;;;5094751;28;20122;-72
2022/03/02 02:43:57;;;;;;;;;;;5.30;99.90;;;;;;5095369;28;20472;-73
2022/03/02 02:46:23;;;;;;;0.30;0.30;;;5.20;99.90;;;;;;5094902;28;19927;-75
2022/03/02 02:48:48;;;;;;;0.20;0.20;;;5.20;99.90;;;;;;5094602;28;20043;-76
2022/03/02 02:51:14;;;;;;;0.20;0.20;;;5.20;99.90;;;;;;5094289;28;20044;-74
2022/03/02 02:53:39;;;;;;;0.30;0.30;;;5.20;99.90;;;;;;5094388;28;20093;-76
2022/03/02 02:56:05;;;;;;;0.20;0.20;;;5.20;99.90;;;;;;5094471;28;20377;-75
2022/03/02 02:58:31;;;;;;;0.30;0.30;;;5.20;99.90;;;;;;5095011;28;20157;-75
2022/03/02 03:00:56;;;;;;;0.30;0.30;;;5.20;99.90;;;;;;5094422;28;20494;-74
2022/03/02 03:03:22;;;;;;;0.30;0.30;;;5.10;99.90;;;;;;5094419;28;20044;-74
2022/03/02 03:05:47;;;;;;;0.30;0.30;;;5.10;99.90;;;;;;5094284;28;20040;-77
2022/03/02 03:08:14;;;;;;;0.30;0.30;;;5.10;99.90;;;;;;5094180;28;20047;-74
2022/03/02 03:10:42;;;;;;;0.20;0.20;;;5.10;99.90;;;;;;5094955;28;20464;-74
2022/03/02 03:13:08;;;;;;;0.20;0.20;;;5.10;99.90;;;;;;5094244;28;20052;-73
2022/03/02 03:15:34;;;;;;;0.20;0.20;;;5.10;99.90;;;;;;5094477;28;20480;-75
2022/03/02 03:18:01;;;;;;;0.30;0.30;;;5.10;99.90;;;;;;5094116;28;20135;-75
2022/03/02 03:20:28;;;;;;;0.20;0.20;;;5.10;99.90;;;;;;5094208;28;20044;-73
2022/03/02 03:22:56;;;;;;;0.20;0.20;;;5.10;99.90;;;;;;5093792;28;20373;-75
2022/03/02 03:25:22;;;;;;;0.20;0.20;;;5.10;99.90;;;;;;5093882;28;20043;-75
2022/03/02 03:27:49;;;;;;;0.20;0.20;;;5.10;99.90;;;;;;5094063;28;20040;-74
2022/03/02 03:30:17;;;;;;;0.20;0.20;;;5.10;99.90;;;;;;5093987;28;20048;-76
2022/03/02 03:32:43;;;;;;;0.25;0.25;;;5.10;99.90;;;;;;5094149;28;20044;-76
2022/03/02 03:35:10;;;;;;;0.20;0.20;;;5.10;99.90;;;;;;5092838;28;20044;-74
2022/03/02 03:37:36;;;;;;;0.25;0.25;;;5.10;99.90;;;;;;5093839;28;20052;-74
2022/03/02 03:40:04;;;;;;;0.30;0.30;;;5.10;99.90;;;;;;5094400;28;20043;-75
2022/03/02 03:42:29;;;;;;;0.28;0.28;;;5.00;99.90;;;;;;5093595;28;20039;-76
2022/03/02 03:44:55;;;;;;;0.20;0.20;;;5.00;99.90;;;;;;5094199;28;20052;-74
2022/03/02 03:47:21;;;;;;;0.20;0.20;;;5.10;99.90;;;;;;5093787;28;20165;-74
2022/03/02 03:49:46;;;;;;;0.20;0.20;;;5.00;99.90;;;;;;5093596;28;20048;-76
2022/03/02 03:52:12;;;;;;;0.30;0.30;;;5.00;99.90;;;;;;5093648;28;20051;-74
2022/03/02 03:54:38;;;;;;;0.20;0.20;;;5.00;99.90;;;;;;5093752;28;20384;-75
2022/03/02 03:57:05;;;;;;;0.20;0.20;;;5.00;99.90;;;;;;5093672;28;20071;-73
2022/03/02 03:59:31;;;;;;;0.20;0.20;;;5.00;99.90;;;;;;5094122;28;20040;-76
2022/03/02 04:01:57;;;;;;;0.20;0.20;;;5.00;99.90;;;;;;5093846;28;20045;-75
2022/03/02 04:04:22;;;;;;;0.30;0.30;;;5.10;99.90;;;;;;5093570;28;20468;-76
2022/03/02 04:06:48;;;;;;;0.20;0.20;;;5.00;99.90;;;;;;5093520;28;20551;-76
2022/03/02 04:09:14;;;;;;;0.20;0.20;;;5.00;99.90;;;;;;5093537;28;20082;-76
2022/03/02 04:11:40;;;;;;;0.20;0.20;;;5.00;99.90;;;;;;5092098;28;20048;-75
2022/03/02 04:14:08;;;;;;;0.30;0.30;;;5.00;99.90;;;;;;5093553;28;20056;-75
2022/03/02 04:16:35;;;;;;;0.20;0.20;;;5.00;99.90;;;;;;5093713;28;20044;-76
2022/03/02 04:19:01;;;;;;;0.20;0.20;;;5.00;99.90;;;;;;5093527;28;20509;-74
2022/03/02 04:21:26;;;;;;;0.20;0.20;;;5.00;99.90;;;;;;5093422;28;20109;-76
2022/03/02 04:23:52;;;;;;;0.30;0.30;;;5.00;99.90;;;;;;5093361;28;20041;-74
2022/03/02 04:26:18;;;;;;;0.30;0.30;;;4.90;99.90;;;;;;5093849;28;20048;-76
2022/03/02 04:28:44;;;;;;;0.20;0.20;;;4.90;99.90;;;;;;5093390;28;20039;-73
2022/03/02 04:31:10;;;;;;;0.30;0.30;;;4.90;99.90;;;;;;5093304;28;20121;-74
2022/03/02 04:33:36;;;;;;;0.20;0.20;;;4.90;99.90;;;;;;5093334;28;20408;-75
2022/03/02 04:36:02;;;;;;;0.20;0.20;;;4.90;99.90;;;;;;5093363;28;20044;-75
2022/03/02 04:38:27;;;;;;;0.30;0.30;;;4.80;99.90;;;;;;5092123;28;20075;-75
2022/03/02 04:40:53;;;;;;;0.20;0.20;;;4.80;99.90;;;;;;5093219;28;20079;-75
2022/03/02 04:43:18;;;;;;;0.30;0.30;;;4.80;99.90;;;;;;5093500;28;20048;-75
2022/03/02 04:45:44;;;;;;;0.20;0.20;;;4.70;99.90;;;;;;5094363;28;20138;-75
2022/03/02 04:48:10;;;;;;;0.20;0.20;;;4.70;99.90;;;;;;5095739;28;20098;-74
2022/03/02 04:50:36;;;;;;;0.30;0.30;;;4.80;99.90;;;;;;5096845;28;20048;-74
2022/03/02 04:53:02;;;;;;;0.22;0.22;;;4.80;99.90;;;;;;5096639;28;20040;-76
2022/03/02 04:55:28;;;;;;;0.30;0.30;;;4.90;99.90;;;;;;5096644;28;20044;-76
2022/03/02 04:57:57;;;;;;;0.30;0.30;;;4.80;99.90;;;;;;5096843;28;20404;-76
2022/03/02 05:00:26;;;;;;;0.30;0.30;;;4.80;99.90;;;;;;5097060;28;20054;-74
2022/03/02 05:02:52;;;;;;;0.30;0.30;;;4.80;99.90;;;;;;5096577;28;20384;-74
2022/03/02 05:05:21;;;;;;;0.20;0.20;;;4.80;99.90;;;;;;5096521;28;20040;-76
2022/03/02 05:07:48;;;;;;;0.30;0.30;;;4.80;99.90;;;;;;5096816;28;20106;-73
2022/03/02 05:10:16;;;;;;;0.30;0.30;;;4.80;99.90;;;;;;5096189;28;20056;-74
2022/03/02 05:12:42;;;;;;;0.20;0.20;;;4.80;99.90;;;;;;5096157;28;20156;-75
2022/03/02 05:15:10;;;;;;;0.20;0.20;;;4.80;99.90;;;;;;5096671;28;20388;-75
2022/03/02 05:17:36;;;;;;;0.20;0.20;;;4.80;99.90;;;;;;5096398;28;20043;-74
2022/03/02 05:20:04;;;;;;;0.20;0.20;;;4.80;99.90;;;;;;5096400;28;20051;-76
2022/03/02 05:22:30;;;;;;;0.30;0.30;;;4.80;99.90;;;;;;5096262;28;20055;-76
2022/03/02 05:24:56;;;;;;;0.20;0.20;;;4.80;99.90;;;;;;5096130;28;20483;-75
2022/03/02 05:27:21;;;;;;;0.20;0.20;;;4.80;99.90;;;;;;5095000;28;20047;-74
2022/03/02 05:29:47;;;;;;;0.30;0.30;;;4.80;99.90;;;;;;5096353;28;20048;-75
2022/03/02 05:32:12;;;;;;;0.30;0.30;;;4.80;99.90;;;;;;5096070;28;20073;-74
2022/03/02 05:34:38;;;;;;;0.30;0.30;;;4.70;99.90;;;;;;5095672;28;20043;-74
2022/03/02 05:37:04;;;;;;;0.20;0.20;;;4.70;99.90;;;;;;5096320;28;20450;-72
2022/03/02 05:39:30;;;;;;;0.30;0.30;;;4.70;99.90;;;;;;5095971;28;20161;-75
2022/03/02 05:41:56;;;;;;;0.30;0.30;;;4.70;99.90;;;;;;5095814;28;20081;-76
2022/03/02 05:44:21;;;;;;;0.30;0.30;;;4.70;99.90;;;;;;5095699;28;20051;-73
2022/03/02 05:46:47;;;;;;;0.20;0.20;;;4.50;99.90;;;;;;5095934;28;20044;-75
2022/03/02 05:49:14;;;;;;;0.20;0.20;;;4.80;99.90;;;;;;5095821;28;20044;-74
2022/03/02 05:51:40;;;;;;;0.20;0.20;;;4.70;99.90;;;;;;5095740;28;20132;-75
2022/03/02 05:54:08;;;;;;;0.20;0.20;;;4.60;99.90;;;;;;5095814;28;20325;-75
2022/03/02 05:56:34;;;;;;;0.30;0.30;;;4.70;99.90;;;;;;5094311;28;20071;-73
2022/03/02 05:59:00;;;;;;;0.20;0.20;;;4.60;99.90;;;;;;5094951;28;20567;-75
2022/03/02 06:01:25;;;;;;;0.30;0.30;;;4.70;99.90;;;;;;5095597;28;20127;-73
2022/03/02 06:03:51;;;;;;;0.20;0.20;;;4.60;99.90;;;;;;5094189;28;20124;-75
2022/03/02 06:06:17;;;;;;;0.20;0.20;;;4.60;99.90;;;;;;5095372;28;20468;-75
2022/03/02 06:08:43;;;;;;;0.30;0.30;;;4.60;99.90;;;;;;5096004;28;20040;-76
2022/03/02 06:11:09;;;;;;;0.20;0.20;;;4.60;99.90;;;;;;5095329;28;20097;-75
2022/03/02 06:13:36;;;;;;;0.20;0.20;;;4.60;99.90;;;;;;5093947;28;20095;-75
2022/03/02 06:16:02;;;;;;;0.30;0.30;;;4.60;99.90;;;;;;5094151;28;20048;-76
2022/03/02 06:18:29;;;;;;;0.30;0.30;;;4.60;99.90;;;;;;5095252;28;20040;-75
2022/03/02 06:21:00;;;;;;;0.30;0.30;;;4.60;99.90;;;;;;5095359;28;20123;-77
2022/03/02 06:23:31;;;;;;;0.20;0.20;;;4.60;99.90;;;;;;5094232;28;20438;-77
2022/03/02 06:25:57;;;;;;;0.20;0.20;;;4.60;99.90;;;;;;5095232;28;20468;-77
2022/03/02 06:28:24;;;;;;;0.20;0.20;;;4.60;99.90;;;;;;5095135;28;20463;-75
2022/03/02 06:30:49;;;;;;;0.30;0.30;;;4.60;99.90;;;;;;5094984;28;20043;-77
2022/03/02 06:33:18;;;;;;;0.22;0.22;;;4.60;99.90;;;;;;5093686;28;20046;-75
2022/03/02 06:35:45;;;;;;;0.20;0.20;;;4.60;99.90;;;;;;5094826;28;20438;-76
2022/03/02 06:38:11;;;;;;;0.30;0.30;;;4.50;99.90;;;;;;5094873;28;20069;-76
2022/03/02 06:40:37;;;;;;;0.20;0.20;;;4.60;99.90;;;;;;5094762;28;20122;-76
2022/03/02 06:43:11;;;;;;;0.30;0.30;;;4.60;99.90;;;;;;5094554;28;20036;-76
2022/03/02 06:45:57;;;;;;;0.20;0.20;;;4.60;99.90;;;;;;5094779;28;20063;-75
2022/03/02 06:48:36;;;;;;;0.20;0.20;;;4.60;99.90;;;;;;5094829;28;20055;-75
2022/03/02 06:51:05;;;;;;;0.30;0.30;;;4.60;99.90;;;;;;5094606;28;20140;-77
2022/03/02 06:53:35;;;;;;;0.20;0.20;;;4.60;99.90;;;;;;5094582;28;20078;-75
2022/03/02 06:56:05;;;;;;;0.30;0.30;;;4.60;99.90;;;;;;5094495;28;20113;-75
2022/03/02 06:58:42;;;;;;;0.20;0.20;;;4.60;99.90;;;;;;5092861;28;20047;-75
2022/03/02 07:01:13;;;;;;;0.30;0.30;;;4.60;99.90;;;;;;5094692;28;20048;-76
2022/03/02 07:03:49;;;;;;;0.20;0.20;;;4.70;99.90;;;;;;5094574;28;20050;-76
2022/03/02 07:06:15;;;;;;;0.30;0.30;;;4.60;99.90;;;;;;5094185;28;20519;-79
2022/03/02 07:08:45;;;;;;;0.30;0.30;;;4.60;99.90;;;;;;5092654;28;20044;-77
2022/03/02 07:11:12;;;;;;;0.20;0.20;;;4.60;99.90;;;;;;5094427;28;20387;-74
2022/03/02 07:13:38;;;;;;;0.30;0.30;;;4.70;99.90;;;;;;5094760;28;20055;-74
2022/03/02 07:16:04;;;;;;;0.20;0.20;;;4.70;99.90;;;;;;5094114;28;20052;-76
2022/03/02 07:18:29;;;;;;;0.20;0.20;;;4.70;99.90;;;;;;5092870;28;20484;-73
2022/03/02 07:20:57;;;;;;;0.30;0.30;;;4.70;99.90;;;;;;5093985;28;20328;-72
2022/03/02 07:23:27;;;;;;;0.30;0.30;;;4.70;99.90;;;;;;5093754;28;20090;-75
2022/03/02 07:25:58;;;;;;;0.30;0.30;;;4.70;99.90;;;;;;5094094;28;20040;-76
2022/03/02 07:28:26;;;;;;;0.30;0.30;;;4.80;99.90;;;;;;5094046;28;20105;-74
2022/03/02 07:30:54;;;;;;;0.30;0.30;;;4.70;99.90;;;;;;5093961;28;20076;-74
2022/03/02 07:33:22;;;;;;;0.30;0.30;;;4.80;99.90;;;;;;5093948;28;20423;-75
2022/03/02 07:35:56;;;;;;;0.20;0.20;;;4.80;99.90;;;;;;5093738;28;20083;-75
2022/03/02 07:38:21;;;;;;;0.20;0.20;;;4.80;99.90;;;;;;5094379;28;20127;-75
2022/03/02 07:40:48;;;;;;;0.20;0.20;;;4.80;99.90;;;;;;5093031;28;20123;-74
2022/03/02 07:43:19;;;;;;;0.30;0.30;;;4.70;99.90;;;;;;5093764;28;20040;-74
2022/03/02 07:45:45;;;;;;;0.30;0.30;;;4.70;99.90;;;;;;5093837;28;20044;-74
2022/03/02 07:48:10;;;;;;;0.20;0.20;;;4.70;99.90;;;;;;5093732;28;20043;-75
2022/03/02 07:50:39;;;;;;;0.20;0.20;;;4.60;99.90;;;;;;5093723;28;20376;-76
2022/03/02 07:53:05;;;;;;;0.20;0.20;;;4.60;99.90;;;;;;5093650;28;20040;-74
2022/03/02 07:55:32;;;;;;;0.30;0.30;;;4.60;99.90;;;;;;5093687;28;20044;-75
2022/03/02 07:58:00;;;;;;;0.30;0.30;;;4.50;99.90;;;;;;5093842;28;20044;-74
2022/03/02 08:00:28;;;;;;;0.20;0.20;;;4.50;99.90;;;;;;5093589;28;20051;-73
2022/03/02 08:02:57;;;;;;;0.20;0.20;;;4.50;99.90;;;;;;5093673;28;20048;-76
2022/03/02 08:05:23;;;;;;;0.30;0.30;;;4.50;99.90;;;;;;5092898;28;20491;-74
2022/03/02 08:07:49;;;;;;;0.30;0.30;;;4.60;99.90;;;;;;5093534;28;20040;-75
2022/03/02 08:10:15;;;;;;;0.30;0.30;;;4.70;99.90;;;;;;5093405;28;20488;-74
2022/03/02 08:12:42;;;;;;;0.30;0.30;;;4.80;99.90;;;;;;5093372;28;20086;-76
2022/03/02 08:15:09;;;;;;;0.30;0.30;;;4.90;99.90;;;;;;5093474;28;20125;-75
2022/03/02 08:17:35;;;;;;;0.30;0.30;;;5.00;99.90;;;;;;5093483;28;20041;-74
2022/03/02 08:20:00;;;;;;;0.30;0.30;;;5.10;99.90;;;;;;5093505;28;20051;-76
2022/03/02 08:22:29;;;;;;;0.20;0.20;;;5.20;99.90;;;;;;5097483;28;20087;-74
2022/03/02 08:25:10;;;;;;;0.20;0.20;;;5.20;99.90;;;;;;5097633;28;20033;-74
2022/03/02 08:27:39;;;;;;;0.20;0.20;;;5.30;99.90;;;;;;5097382;28;20048;-75
2022/03/02 08:30:07;;;;;;;0.20;0.20;;;5.30;99.90;;;;;;5097039;28;20545;-75
2022/03/02 08:32:41;;;;;;;0.20;0.20;;;5.40;99.90;;;;;;5097188;28;20075;-75
2022/03/02 08:35:07;;;;;;;0.20;0.20;;;5.40;99.90;;;;;;5097245;28;20063;-76
2022/03/02 08:37:34;;;;;;;0.30;0.30;;;5.40;99.90;;;;;;5097595;28;20036;-76
2022/03/02 08:40:00;;;;;;;0.20;0.20;;;5.50;99.90;;;;;;5097308;28;20773;-76
2022/03/02 08:42:25;;;;;;;0.20;0.20;;;5.60;99.90;;;;;;5097198;28;20048;-76
2022/03/02 08:44:54;;;;;;;0.20;0.20;;;5.60;99.90;;;;;;5096800;28;20127;-75
2022/03/02 08:47:22;;;;;;;0.20;0.20;;;5.70;99.90;;;;;;5097007;28;20052;-76
2022/03/02 08:49:48;;;;;;;0.20;0.20;;;5.80;99.90;;;;;;5096882;28;20048;-75
2022/03/02 08:52:20;;;;;;;0.30;0.30;;;5.80;99.90;;;;;;5096799;28;20036;-76
2022/03/02 08:54:47;;;;;;;0.20;0.20;;;5.90;99.90;;;;;;5096855;28;20044;-75
2022/03/02 08:57:15;;;;;;;0.20;0.20;;;6.00;99.90;;;;;;5096745;28;20048;-75
2022/03/02 08:59:41;;;;;;;0.20;0.20;;;6.10;99.90;;;;;;5096686;28;20089;-75
2022/03/02 09:02:08;;;;;;;0.20;0.20;;;6.10;99.90;;;;;;5096723;28;20086;-74
2022/03/02 09:04:35;;;;;;;0.20;0.20;;;6.10;99.90;;;;;;5096602;28;20472;-76
2022/03/02 09:07:05;;;;;;;0.30;0.30;;;6.20;99.90;;;;;;5096402;28;20086;-75
2022/03/02 09:09:31;;;;;;;0.20;0.20;;;6.30;99.90;;;;;;5096741;28;20040;-76
2022/03/02 09:11:56;;;;;;;0.20;0.20;;;6.40;99.90;;;;;;5096376;28;20097;-75
2022/03/02 09:14:23;;;;;;;0.30;0.30;;;6.50;99.90;;;;;;5096985;28;20388;-74
2022/03/02 09:16:50;;;;;;;0.20;0.20;;;6.60;99.90;;;;;;5096402;28;20097;-76
2022/03/02 09:19:16;;;;;;;0.20;0.20;;;6.70;99.90;;;;;;5096323;28;20098;-75
2022/03/02 09:21:43;;;;;;;0.20;0.20;;;6.70;99.90;;;;;;5096310;28;20072;-75
2022/03/02 09:24:09;;;;;;;;;;;6.80;99.90;;;;;;5096642;28;20485;-74
2022/03/02 09:26:36;;;;;;;0.20;0.20;;;6.90;99.90;;;;;;5096229;28;19971;-76
2022/03/02 09:29:05;;;;;;;0.20;0.20;;;7.00;99.90;;;;;;5096648;28;20039;-75
2022/03/02 09:31:33;;;;;;;0.20;0.20;;;7.00;99.90;;;;;;5095611;28;20044;-75
2022/03/02 09:34:01;;;;;;;0.20;0.20;;;7.10;99.90;;;;;;5096092;28;20040;-76
2022/03/02 09:36:27;;;;;;;0.20;0.20;;;7.10;99.90;;;;;;5096034;28;20044;-76
2022/03/02 09:38:54;;;;;;;0.20;0.20;;;7.20;99.90;;;;;;5095984;28;20381;-75
2022/03/02 09:41:34;;;;;;;0.20;0.20;;;7.20;99.90;;;;;;5095924;28;20073;-75
2022/03/02 09:44:00;;;;;;;0.20;0.20;;;7.30;99.90;;;;;;5095810;28;20044;-76
2022/03/02 09:46:33;;;;;;;0.20;0.20;;;7.30;99.90;;;;;;5093981;28;20054;-74
2022/03/02 09:49:07;;;;;;;0.20;0.20;;;7.40;99.90;;;;;;5094189;28;20493;-78
2022/03/02 09:51:33;;;;;;;0.20;0.20;;;7.40;99.90;;;;;;5095738;28;20487;-74
2022/03/02 09:54:02;;;;;;;0.20;0.20;;;7.50;99.90;;;;;;5095261;28;20084;-75
2022/03/02 09:56:31;;;;;;;0.20;0.20;;;7.50;99.90;;;;;;5094415;28;20040;-76
2022/03/02 09:59:00;;;;;;;0.20;0.20;;;7.60;99.90;;;;;;5095484;28;20130;-73
2022/03/02 10:01:26;;;;;;;0.20;0.20;;;7.80;99.90;;;;;;5095242;28;20133;-74
2022/03/02 10:03:53;;;;;;;0.20;0.20;;;7.80;99.90;;;;;;5095118;28;20051;-74
2022/03/02 10:06:21;;;;;;;0.20;0.20;;;7.80;99.90;;;;;;5095023;28;20048;-73
2022/03/02 10:08:52;;;;;;;0.20;0.20;;;7.80;99.90;;;;;;5095136;28;20211;-74
2022/03/02 10:11:23;;;;;;;0.20;0.20;;;7.90;99.90;;;;;;5094125;28;20367;-75
2022/03/02 10:13:51;;;;;;;0.20;0.20;;;8.00;99.90;;;;;;5094631;28;20492;-73
2022/03/02 10:16:26;;;;;;;0.20;0.20;;;8.00;99.90;;;;;;5094594;28;20127;-76
2022/03/02 10:18:56;;;;;;;0.20;0.20;;;8.00;99.90;;;;;;5094862;28;20405;-73
2022/03/02 10:21:28;;;;;;;0.20;0.20;;;8.10;99.90;;;;;;5094922;28;20505;-73
2022/03/02 10:23:59;;;;;;;0.20;0.20;;;8.20;99.90;;;;;;5095008;28;20399;-74
2022/03/02 10:26:28;;;;;;;0.20;0.20;;;8.30;99.90;;;;;;5094943;28;20048;-73
2022/03/02 10:29:09;;;;;;;0.20;0.20;;;8.30;99.90;;;;;;5094654;28;20131;-74
2022/03/02 10:32:08;;;;;;;0.20;0.20;;;8.30;99.90;;;;;;5094210;28;20043;-73
2022/03/02 10:34:38;;;;;;;0.20;0.20;;;8.40;99.90;;;;;;5094765;28;20075;-75
2022/03/02 10:37:24;;;;;;;0.20;0.20;;;8.40;99.90;;;;;;5094571;28;20040;-72
2022/03/02 10:39:56;;;;;;;0.30;0.30;;;8.50;99.90;;;;;;5094350;28;20048;-74
2022/03/02 10:42:28;;;;;;;0.20;0.20;;;8.60;99.90;;;;;;5093754;28;20098;-75
2022/03/02 10:45:10;;;;;;;0.20;0.20;;;8.60;99.90;;;;;;5094073;28;20096;-75
2022/03/02 10:47:42;;;;;;;0.20;0.20;;;8.60;99.90;;;;;;5094347;28;20514;-74
2022/03/02 10:50:08;;;;;;;0.20;0.20;;;8.70;99.90;;;;;;5094474;28;20085;-75
2022/03/02 10:52:36;;;;;;;0.20;0.20;;;8.70;99.90;;;;;;5093924;28;20040;-75
2022/03/02 10:55:06;;;;;;;0.20;0.20;;;8.80;99.90;;;;;;5094544;28;20036;-75
2022/03/02 10:57:33;;;;;;;0.20;0.20;;;8.80;99.90;;;;;;5094212;28;20059;-77
2022/03/02 11:00:11;;;;;;;0.20;0.20;;;9.00;99.90;;;;;;5092949;28;20178;-76
2022/03/02 11:02:42;;;;;;;0.20;0.20;;;8.90;99.90;;;;;;5094355;28;20055;-75
2022/03/02 11:05:18;;;;;;;0.20;0.20;;;8.90;99.90;;;;;;5094121;28;20059;-77
2022/03/02 11:07:45;;;;;;;0.20;0.20;;;9.00;99.90;;;;;;5094311;28;20131;-76
2022/03/02 11:10:13;;;;;;;0.20;0.20;;;9.10;99.90;;;;;;5094021;28;20075;-77
2022/03/02 11:12:44;;;;;;;0.20;0.20;;;9.20;99.90;;;;;;5094293;28;20048;-76
2022/03/02 11:15:11;;;;;;;0.20;0.20;;;9.30;99.90;;;;;;5093821;28;20400;-77
2022/03/02 11:17:53;;;;;;;0.20;0.20;;;9.30;99.90;;;;;;5093796;28;20047;-75
2022/03/02 11:20:19;;;;;;;0.20;0.20;;;9.40;99.90;;;;;;5094036;28;20090;-76
2022/03/02 11:23:00;;;;;;;0.20;0.20;;;9.50;99.90;;;;;;5093713;28;20052;-75
2022/03/02 11:25:47;;;;;;;0.20;0.20;;;9.50;99.90;;;;;;5092847;28;20043;-74
2022/03/02 11:28:15;;;;;;;0.20;0.20;;;9.50;99.90;;;;;;5093807;28;20063;-74
2022/03/02 11:30:50;;;;;;;0.20;0.20;;;9.50;99.90;;;;;;5092360;28;20040;-74
2022/03/02 11:33:20;;;;;;;0.20;0.20;;;9.60;99.90;;;;;;5093581;28;20054;-76
2022/03/02 11:35:46;;;;;;;0.20;0.20;;;9.60;99.90;;;;;;5093311;28;20518;-75
2022/03/02 11:38:17;;;;;;;0.20;0.20;;;9.70;99.90;;;;;;5093402;28;20044;-75
2022/03/02 11:40:45;;;;;;;0.20;0.20;;;9.70;99.90;;;;;;5093626;28;20131;-78
2022/03/02 11:43:19;;;;;;;0.20;0.20;;;9.80;99.90;;;;;;5092338;28;20091;-75
2022/03/02 11:45:45;;;;;;;0.20;0.20;;;9.80;99.90;;;;;;5093405;28;20044;-74
2022/03/02 11:48:14;;;;;;;0.25;0.25;;;9.90;99.90;;;;;;5093282;28;20080;-77
2022/03/02 11:51:04;;;;;;;0.20;0.20;;;9.90;99.90;;;;;;5090905;28;20525;-76
2022/03/02 11:53:32;;;;;;;0.20;0.20;;;10.00;99.90;;;;;;5093201;28;20389;-76
2022/03/02 11:56:00;;;;;;;0.20;0.20;;;10.00;99.90;;;;;;5094438;28;20044;-76
2022/03/02 11:58:26;;;;;;;0.20;0.20;;;10.10;99.90;;;;;;5097260;28;20079;-78
2022/03/02 12:00:52;;;;;;;0.20;0.20;;;10.10;99.90;;;;;;5097306;28;20094;-77
2022/03/02 12:03:18;;;;;;;0.20;0.20;;;10.20;99.90;;;;;;5097327;28;20051;-77
2022/03/02 12:05:44;;;;;;;0.20;0.20;;;10.20;99.90;;;;;;5097104;28;20050;-75
2022/03/02 12:08:12;;;;;;;0.20;0.20;;;10.30;99.90;;;;;;5097307;28;20126;-76
2022/03/02 12:10:40;;;;;;;0.20;0.20;;;10.30;99.90;;;;;;5095490;28;20111;-77
2022/03/02 12:13:06;;;;;;;0.20;0.20;;;10.40;99.90;;;;;;5096996;28;20448;-76
2022/03/02 12:15:47;;;;;;;0.20;0.20;;;10.40;99.90;;;;;;5096937;28;20127;-76
2022/03/02 12:18:16;;;;;;;0.20;0.20;;;10.40;99.90;;;;;;5096581;28;20046;-74
2022/03/02 12:20:55;;;;;;;0.20;0.20;;;10.40;99.90;;;;;;5096958;28;20090;-77
2022/03/02 12:23:30;;;;;;;0.20;0.20;;;10.50;99.90;;;;;;5096746;28;20404;-75
2022/03/02 12:25:59;;;;;;;0.20;0.20;;;10.50;99.90;;;;;;5096635;28;20129;-75
2022/03/02 12:28:25;;;;;;;0.20;0.20;;;10.50;99.90;;;;;;5096523;28;20131;-78
2022/03/02 12:30:51;;;;;;;0.20;0.20;;;10.60;99.90;;;;;;5096428;28;20463;-73
2022/03/02 12:33:21;;;;;;;0.20;0.20;;;10.70;99.90;;;;;;5098584;28;20067;-75
2022/03/02 12:35:47;;;;;;;0.20;0.20;;;10.70;99.90;;;;;;5097384;28;20048;-77
2022/03/02 12:38:13;;;;;;;0.20;0.20;;;10.70;99.90;;;;;;5096816;28;20388;-76
2022/03/02 12:40:40;;;;;;;0.20;0.20;;;10.70;99.90;;;;;;5097113;28;20101;-75
2022/03/02 12:43:14;;;;;;;0.20;0.20;;;10.80;99.90;;;;;;5078677;28;20095;-75
2022/03/02 12:45:43;;;;;;;0.20;0.20;;;10.80;99.90;;;;;;5096282;28;20487;-76
2022/03/02 12:48:09;;;;;;;0.20;0.20;;;10.90;99.90;;;;;;5096758;28;20039;-76
2022/03/02 12:50:34;;;;;;;0.20;0.20;;;10.90;99.90;;;;;;5096675;28;20040;-74
2022/03/02 12:53:01;;;;;;;0.20;0.20;;;10.90;99.90;;;;;;5095173;28;20047;-76
2022/03/02 12:55:27;;;;;;;;;;;10.90;99.90;;;;;;5096999;28;20048;-78
2022/03/02 12:57:53;;;;;;;0.20;0.20;;;11.00;98.30;;;;;;5096385;28;19920;-74
2022/03/02 13:00:21;;;;;;;0.20;0.20;;;11.00;99.90;;;;;;5097478;28;20109;-78